createdAt,value
2023-04-22T00:03:57.484Z,10.76
2023-04-22T00:08:54.064Z,10.83
2023-04-22T00:13:50.444Z,11.04
2023-04-22T00:18:46.833Z,10.99
2023-04-22T00:23:45.254Z,10.87
2023-04-22T00:28:41.599Z,10.66
2023-04-22T00:33:38.057Z,10.53
2023-04-22T00:38:34.430Z,10.51
2023-04-22T00:43:30.885Z,10.50
2023-04-22T00:48:28.877Z,10.49
2023-04-22T00:53:25.408Z,10.26
2023-04-22T00:58:25.041Z,10.07
2023-04-22T01:03:22.321Z,9.95
2023-04-22T01:08:18.819Z,9.78
2023-04-22T01:13:15.165Z,9.59
2023-04-22T01:18:12.058Z,9.44
2023-04-22T01:23:18.945Z,9.23
2023-04-22T01:28:16.793Z,9.12
2023-04-22T01:33:13.265Z,9.11
2023-04-22T01:38:11.395Z,9.11
2023-04-22T01:43:07.923Z,8.89
2023-04-22T01:48:04.864Z,8.84
2023-04-22T01:53:01.391Z,8.74
2023-04-22T01:57:57.795Z,8.82
2023-04-22T02:02:54.310Z,8.73
2023-04-22T02:07:54.848Z,8.51
2023-04-22T02:12:51.203Z,8.38
2023-04-22T02:17:47.603Z,8.39
2023-04-22T02:22:44.045Z,8.62
2023-04-22T02:27:40.516Z,8.77
2023-04-22T02:32:38.805Z,8.95
2023-04-22T02:37:35.274Z,9.20
2023-04-22T02:42:31.588Z,9.26
2023-04-22T02:47:27.994Z,9.23
2023-04-22T02:52:24.361Z,9.39
2023-04-22T02:57:21.049Z,9.52
2023-04-22T03:02:17.439Z,9.60
2023-04-22T03:07:14.374Z,9.64
2023-04-22T03:12:10.754Z,9.66
2023-04-22T03:17:07.094Z,9.61
2023-04-22T03:22:03.468Z,9.49
2023-04-22T03:26:59.809Z,9.42
2023-04-22T03:31:56.237Z,9.59
2023-04-22T03:36:52.765Z,9.82
2023-04-22T03:41:49.085Z,9.98
2023-04-22T03:46:45.416Z,10.08
2023-04-22T03:51:42.285Z,10.16
2023-04-22T03:56:38.787Z,10.19
2023-04-22T04:01:36.243Z,10.20
2023-04-22T04:06:33.309Z,10.30
2023-04-22T04:11:30.680Z,10.29
2023-04-22T04:16:27.104Z,10.30
2023-04-22T04:21:23.559Z,10.36
2023-04-22T04:26:20.398Z,10.34
2023-04-22T04:31:17.643Z,10.35
2023-04-22T04:36:14.082Z,10.24
2023-04-22T04:41:10.661Z,10.26
2023-04-22T04:46:08.299Z,10.19
2023-04-22T04:51:06.172Z,10.31
2023-04-22T04:56:02.529Z,10.36
2023-04-22T05:00:58.889Z,10.40
2023-04-22T05:05:55.886Z,10.37
2023-04-22T05:10:52.205Z,10.47
2023-04-22T05:15:48.888Z,10.61
2023-04-22T05:20:45.305Z,10.79
2023-04-22T05:25:43.139Z,10.93
2023-04-22T05:30:39.542Z,11.13
2023-04-22T05:35:35.891Z,11.23
2023-04-22T05:40:32.308Z,11.41
2023-04-22T05:45:28.685Z,11.51
2023-04-22T05:50:25.161Z,11.69
2023-04-22T05:55:21.458Z,11.88
2023-04-22T06:00:18.126Z,12.00
2023-04-22T06:05:14.532Z,12.21
2023-04-22T06:10:10.970Z,12.37
2023-04-22T06:15:07.714Z,12.56
2023-04-22T06:20:04.341Z,12.78
2023-04-22T06:25:00.629Z,12.99
2023-04-22T06:29:56.918Z,13.36
2023-04-22T06:34:53.213Z,13.63
2023-04-22T06:39:49.509Z,13.89
2023-04-22T06:44:45.821Z,14.15
2023-04-22T06:49:43.716Z,14.39
2023-04-22T06:54:40.150Z,14.49
2023-04-22T06:59:36.593Z,14.69
2023-04-22T07:04:33.236Z,14.87
2023-04-22T07:09:29.543Z,15.26
2023-04-22T07:14:27.283Z,15.50
2023-04-22T07:19:23.657Z,15.76
2023-04-22T07:24:19.959Z,15.89
2023-04-22T07:29:16.301Z,15.98
2023-04-22T07:34:14.164Z,16.19
2023-04-22T07:39:10.489Z,16.42
2023-04-22T07:44:06.851Z,16.63
2023-04-22T07:49:03.140Z,16.82
2023-04-22T07:53:59.492Z,17.17
2023-04-22T07:58:55.772Z,17.49
2023-04-22T08:03:52.296Z,17.78
2023-04-22T08:08:48.942Z,18.09
2023-04-22T08:13:45.646Z,18.14
2023-04-22T08:18:41.942Z,18.04
2023-04-22T08:23:38.347Z,18.30
2023-04-22T08:28:35.414Z,18.43
2023-04-22T08:33:31.722Z,18.57
2023-04-22T08:38:28.104Z,18.61
2023-04-22T08:43:27.552Z,18.44
2023-04-22T08:48:23.856Z,18.72
2023-04-22T08:53:23.042Z,18.93
2023-04-22T08:58:22.145Z,19.24
2023-04-22T09:03:19.176Z,19.43
2023-04-22T09:08:15.848Z,19.92
2023-04-22T09:13:13.801Z,20.33
2023-04-22T09:18:10.273Z,20.21
2023-04-22T09:23:06.772Z,20.01
2023-04-22T09:28:03.369Z,20.10
2023-04-22T09:33:01.643Z,20.35
2023-04-22T09:38:00.077Z,20.63
2023-04-22T09:42:58.565Z,20.81
2023-04-22T09:47:57.059Z,20.98
2023-04-22T09:52:56.257Z,21.35
2023-04-22T09:57:54.434Z,21.46
2023-04-22T10:02:50.891Z,21.51
2023-04-22T10:07:47.288Z,21.75
2023-04-22T10:12:44.397Z,21.69
2023-04-22T10:17:42.725Z,21.82
2023-04-22T10:22:41.718Z,22.00
2023-04-22T10:27:38.948Z,21.92
2023-04-22T10:32:35.395Z,22.08
2023-04-22T10:37:33.656Z,22.46
2023-04-22T10:42:30.214Z,22.09
2023-04-22T10:47:34.765Z,22.06
2023-04-22T10:52:31.072Z,22.06
2023-04-22T10:57:37.442Z,22.29
2023-04-22T11:02:37.002Z,22.49
2023-04-22T11:07:35.585Z,22.26
2023-04-22T11:12:43.913Z,22.51
2023-04-22T11:17:43.547Z,22.67
2023-04-22T11:22:43.509Z,23.30
2023-04-22T11:27:43.317Z,22.89
2023-04-22T11:32:44.876Z,22.68
2023-04-22T11:37:47.495Z,22.80
2023-04-22T11:42:44.162Z,22.99
2023-04-22T11:47:41.428Z,22.84
2023-04-22T11:52:42.115Z,22.27
2023-04-22T11:57:38.854Z,22.02
2023-04-22T12:02:35.251Z,22.29
2023-04-22T12:07:33.065Z,23.04
2023-04-22T12:12:29.354Z,22.99
2023-04-22T12:17:25.996Z,23.12
2023-04-22T12:22:30.127Z,22.86
2023-04-22T12:27:27.748Z,23.35
2023-04-22T12:32:26.071Z,23.41
2023-04-22T12:37:22.390Z,23.68
2023-04-22T12:42:18.890Z,23.45
2023-04-22T12:47:17.841Z,23.63
2023-04-22T12:52:14.229Z,23.26
2023-04-22T12:57:10.570Z,22.57
2023-04-22T13:02:06.993Z,22.64
2023-04-22T13:07:03.516Z,22.50
2023-04-22T13:11:59.835Z,22.46
2023-04-22T13:16:56.256Z,22.76
2023-04-22T13:21:53.047Z,23.99
2023-04-22T13:26:49.462Z,24.11
2023-04-22T13:31:46.167Z,23.12
2023-04-22T13:36:42.611Z,22.86
2023-04-22T13:41:38.939Z,22.38
2023-04-22T13:46:35.230Z,22.33
2023-04-22T13:51:32.228Z,22.66
2023-04-22T13:56:29.360Z,23.58
2023-04-22T14:01:26.673Z,24.04
2023-04-22T14:06:23.228Z,23.19
2023-04-22T14:11:19.643Z,22.80
2023-04-22T14:16:16.121Z,22.70
2023-04-22T14:21:12.707Z,22.59
2023-04-22T14:26:11.621Z,23.40
2023-04-22T14:31:08.688Z,23.63
2023-04-22T14:36:05.402Z,23.01
2023-04-22T14:41:01.898Z,22.41
2023-04-22T14:45:58.304Z,22.68
2023-04-22T14:50:54.677Z,22.41
2023-04-22T14:55:51.081Z,22.28
2023-04-22T15:00:48.966Z,22.06
2023-04-22T15:05:49.145Z,22.35
2023-04-22T15:10:45.651Z,22.44
2023-04-22T15:15:42.161Z,22.42
2023-04-22T15:20:38.618Z,22.26
2023-04-22T15:25:35.775Z,21.94
2023-04-22T15:30:32.380Z,22.32
2023-04-22T15:35:28.791Z,22.51
2023-04-22T15:40:25.296Z,22.39
2023-04-22T15:45:21.727Z,22.03
2023-04-22T15:50:19.188Z,21.71
2023-04-22T15:55:15.493Z,21.30
2023-04-22T16:00:14.149Z,20.96
2023-04-22T16:05:14.573Z,20.80
2023-04-22T16:10:11.371Z,20.15
2023-04-22T16:15:09.574Z,19.89
2023-04-22T16:20:06.668Z,19.59
2023-04-22T16:25:03.194Z,18.77
2023-04-22T16:29:59.579Z,18.30
2023-04-22T16:34:55.983Z,17.71
2023-04-22T16:39:52.373Z,17.68
2023-04-22T16:44:48.930Z,17.73
2023-04-22T16:49:45.620Z,17.83
2023-04-22T16:54:44.831Z,17.75
2023-04-22T16:59:41.554Z,17.49
2023-04-22T17:04:38.012Z,17.18
2023-04-22T17:09:34.403Z,16.96
2023-04-22T17:14:31.099Z,16.82
2023-04-22T17:19:27.827Z,16.75
2023-04-22T17:24:24.835Z,16.58
2023-04-22T17:29:21.801Z,16.45
2023-04-22T17:34:18.343Z,16.22
2023-04-22T17:39:14.907Z,16.12
2023-04-22T17:44:11.307Z,16.07
2023-04-22T17:49:07.664Z,16.12
2023-04-22T17:54:05.213Z,16.12
2023-04-22T17:59:01.685Z,16.05
2023-04-22T18:03:58.923Z,16.00
2023-04-22T18:08:55.450Z,15.92
2023-04-22T18:13:51.818Z,15.85
2023-04-22T18:18:48.244Z,15.82
2023-04-22T18:23:44.559Z,15.78
2023-04-22T18:28:41.097Z,15.74
2023-04-22T18:33:37.756Z,15.70
2023-04-22T18:38:34.124Z,15.70
2023-04-22T18:43:30.620Z,15.64
2023-04-22T18:48:26.953Z,15.63
2023-04-22T18:53:24.751Z,15.78
2023-04-22T18:58:23.083Z,15.71
2023-04-22T19:03:19.731Z,15.65
2023-04-22T19:08:16.326Z,15.57
2023-04-22T19:13:18.909Z,15.46
2023-04-22T19:18:24.820Z,15.44
2023-04-22T19:23:21.765Z,15.46
2023-04-22T19:28:18.137Z,15.44
2023-04-22T19:33:14.941Z,15.36
2023-04-22T19:38:12.117Z,15.18
2023-04-22T19:43:08.483Z,15.04
2023-04-22T19:48:05.694Z,14.86
2023-04-22T19:53:05.207Z,14.63
2023-04-22T19:58:02.646Z,14.34
2023-04-22T20:02:59.591Z,14.05
2023-04-22T20:07:58.465Z,13.87
2023-04-22T20:12:55.145Z,13.71
2023-04-22T20:17:51.924Z,13.63
2023-04-22T20:22:50.193Z,13.48
2023-04-22T20:27:46.918Z,13.43
2023-04-22T20:32:43.519Z,13.36
2023-04-22T20:37:40.104Z,13.29
2023-04-22T20:42:37.013Z,13.22
2023-04-22T20:47:33.498Z,13.20
2023-04-22T20:52:29.877Z,13.15
2023-04-22T20:57:26.198Z,13.11
2023-04-22T21:02:23.298Z,13.10
2023-04-22T21:07:20.916Z,13.09
2023-04-22T21:12:19.257Z,13.05
2023-04-22T21:17:21.327Z,13.23
2023-04-22T21:22:21.108Z,13.25
2023-04-22T21:27:21.919Z,13.32
2023-04-22T21:32:20.442Z,13.41
2023-04-22T21:37:16.926Z,13.40
2023-04-22T21:42:13.264Z,13.32
2023-04-22T21:47:09.614Z,13.31
2023-04-22T21:52:06.020Z,13.42
2023-04-22T21:57:02.511Z,13.50
2023-04-22T22:01:58.890Z,13.56
2023-04-22T22:06:55.616Z,13.41
2023-04-22T22:11:51.981Z,13.38
2023-04-22T22:16:49.847Z,13.29
2023-04-22T22:21:46.391Z,13.32
2023-04-22T22:26:43.290Z,13.26
2023-04-22T22:31:39.773Z,13.28
2023-04-22T22:36:36.941Z,13.12
2023-04-22T22:41:33.273Z,12.87
2023-04-22T22:46:30.566Z,12.57
2023-04-22T22:51:29.846Z,12.27
2023-04-22T22:56:26.447Z,11.99
2023-04-22T23:01:23.434Z,11.84
2023-04-22T23:06:19.873Z,11.75
2023-04-22T23:11:16.304Z,11.71
2023-04-22T23:16:12.705Z,11.68
2023-04-22T23:21:10.097Z,11.63
2023-04-22T23:26:06.888Z,11.57
2023-04-22T23:31:06.566Z,11.52
2023-04-22T23:36:06.153Z,11.48
2023-04-22T23:41:02.533Z,11.45
2023-04-22T23:45:59.140Z,11.43
2023-04-22T23:50:55.544Z,11.40
2023-04-22T23:55:52.303Z,11.34
